Huvudsida
METAR-TAF:

METAR-TAF

Flygplatser :

Ardabil Airport

Ardabil, Iran

latitud: 38-19-35N, longitud: 048-25-28E, höjd: 1315 m

Aktuellt väderrapport

Denna rapport gjordes för 39 minuter sedan, klockan 08:00 UTC
Vind 14 kt från syd/sydväst
Temperatur 12°C
Fuktighet 50%
Tryck 1019 hPa
Sikt 10 km eller mer
Få moln på en höjd av 3500 ft
Brutna moln på en höjd av 20000 ft

METAR: OITL 220800Z 21014KT 9999 FEW035 BKN200 12/02 Q1019

Tid: 12:09 (08:39 UTC)


TAF: saknas

Aktuella väderrapporter och prognoser från 4000 flygplatser (METAR- och TAF-rapporter).

De tillgängliga stationerna syns som gula och röda prickar på kartan.

För musen över prickarna för att se namnen på stationerna.

Klicka sedan för att få väderrapporter och prognoser.

För att ändra kartan: Klicka på de gröna knapparna med ett svart kors på för att zooma in; den gröna knappen med ett streck på för att zooma ut; eller på de gröna pilarna för angränsande kartor.


METAR-TAF: